ARG1603 SAZM-SABE
Flight info
| Callsign | ARG1603 |
|---|---|
| Flight time | 0h 39m |
| Altitude | 33000 |
| Route | PULPA1G PULPA UW31 TENIL TENIL8R |
| Aircraft | B738/M-SDE2E3FGHIRWXY/LB1 |
Departure
| Time | 2026-05-07 23:44 |
|---|---|
| Airport | Ástor Piazzola International Airport (SAZM) |
Arrival
| Time | 2026-05-08 00:24 |
|---|---|
| Airport | Aeroparque Jorge Newbery (SABE) |
| Time | Latitude | Longitude | Altitude | Speed | Heading |
|---|---|---|---|---|---|
| 2026-05-07 23:12 | -37.93259 | -57.58108 | 53 ft | 0 kts | 327° |
| 2026-05-07 23:27 | -37.93262 | -57.58107 | 49 ft | 4 kts | 317° |
| 2026-05-07 23:28 | -37.93283 | -57.58085 | 51 ft | 4 kts | 318° |
| 2026-05-07 23:28 | -37.93296 | -57.58069 | 46 ft | 4 kts | 313° |
| 2026-05-07 23:28 | -37.93305 | -57.58057 | 51 ft | 0 kts | 313° |
| 2026-05-07 23:30 | -37.93308 | -57.58053 | 51 ft | 4 kts | 307° |
| 2026-05-07 23:30 | -37.93314 | -57.58009 | 45 ft | 7 kts | 242° |
| 2026-05-07 23:31 | -37.93310 | -57.58000 | 49 ft | 0 kts | 230° |
| 2026-05-07 23:35 | -37.93340 | -57.58020 | 53 ft | 2 kts | 190° |
| 2026-05-07 23:35 | -37.93371 | -57.57994 | 53 ft | 10 kts | 126° |
| 2026-05-07 23:35 | -37.93426 | -57.57868 | 53 ft | 23 kts | 119° |
| 2026-05-07 23:36 | -37.93521 | -57.57657 | 52 ft | 32 kts | 119° |
| 2026-05-07 23:36 | -37.93630 | -57.57412 | 49 ft | 31 kts | 119° |
| 2026-05-07 23:36 | -37.93723 | -57.57200 | 51 ft | 23 kts | 119° |
| 2026-05-07 23:36 | -37.93799 | -57.57028 | 53 ft | 22 kts | 118° |
| 2026-05-07 23:37 | -37.93874 | -57.56860 | 53 ft | 22 kts | 120° |
| 2026-05-07 23:37 | -37.93946 | -57.56697 | 53 ft | 21 kts | 119° |
| 2026-05-07 23:37 | -37.94017 | -57.56540 | 53 ft | 19 kts | 120° |
| 2026-05-07 23:37 | -37.94029 | -57.56455 | 52 ft | 7 kts | 66° |
| 2026-05-07 23:38 | -37.94009 | -57.56403 | 52 ft | 3 kts | 62° |
| 2026-05-07 23:38 | -37.94009 | -57.56401 | 52 ft | 0 kts | 62° |
| 2026-05-07 23:42 | -37.94006 | -57.56396 | 50 ft | 2 kts | 63° |
| 2026-05-07 23:42 | -37.93998 | -57.56374 | 52 ft | 4 kts | 62° |
| 2026-05-07 23:43 | -37.93975 | -57.56342 | 52 ft | 6 kts | 32° |
| 2026-05-07 23:43 | -37.93932 | -57.56337 | 51 ft | 6 kts | 343° |
| 2026-05-07 23:43 | -37.93918 | -57.56352 | 52 ft | 0 kts | 307° |
| 2026-05-07 23:43 | -37.93878 | -57.56424 | 53 ft | 46 kts | 303° |
| 2026-05-07 23:44 | -37.93506 | -57.57159 | 51 ft | 148 kts | 302° |
| 2026-05-07 23:44 | -37.92848 | -57.58432 | 619 ft | 189 kts | 304° |
| 2026-05-07 23:44 | -37.92095 | -57.59897 | 1650 ft | 197 kts | 302° |
| 2026-05-07 23:44 | -37.91352 | -57.61396 | 2759 ft | 212 kts | 302° |
| 2026-05-07 23:45 | -37.90522 | -57.63082 | 3305 ft | 233 kts | 302° |
| 2026-05-07 23:45 | -37.89650 | -57.64853 | 3968 ft | 240 kts | 302° |
| 2026-05-07 23:45 | -37.88761 | -57.66656 | 4718 ft | 243 kts | 302° |
| 2026-05-07 23:45 | -37.87861 | -57.68480 | 5462 ft | 245 kts | 302° |
| 2026-05-07 23:46 | -37.86953 | -57.70319 | 6187 ft | 248 kts | 302° |
| 2026-05-07 23:46 | -37.86030 | -57.72183 | 6889 ft | 251 kts | 303° |
| 2026-05-07 23:46 | -37.84780 | -57.73760 | 7511 ft | 261 kts | 327° |
| 2026-05-07 23:46 | -37.83040 | -57.74622 | 7996 ft | 278 kts | 350° |
| 2026-05-07 23:47 | -37.81104 | -57.74683 | 8855 ft | 284 kts | 2° |
| 2026-05-07 23:47 | -37.79127 | -57.74528 | 9649 ft | 287 kts | 4° |
| 2026-05-07 23:47 | -37.77126 | -57.74340 | 9969 ft | 289 kts | 4° |
| 2026-05-07 23:47 | -37.75112 | -57.74149 | 9992 ft | 290 kts | 4° |
| 2026-05-07 23:48 | -37.73100 | -57.73964 | 10009 ft | 289 kts | 4° |
| 2026-05-07 23:48 | -37.71092 | -57.73787 | 10014 ft | 289 kts | 4° |
| 2026-05-07 23:48 | -37.69081 | -57.73614 | 10012 ft | 289 kts | 3° |
| 2026-05-07 23:48 | -37.67072 | -57.73445 | 10008 ft | 289 kts | 3° |
| 2026-05-07 23:49 | -37.65063 | -57.73278 | 10006 ft | 289 kts | 3° |
| 2026-05-07 23:49 | -37.63077 | -57.73115 | 10011 ft | 290 kts | 3° |
| 2026-05-07 23:49 | -37.61061 | -57.72950 | 10007 ft | 290 kts | 3° |
| 2026-05-07 23:49 | -37.59048 | -57.72786 | 10000 ft | 290 kts | 3° |
| 2026-05-07 23:50 | -37.57034 | -57.72622 | 10000 ft | 290 kts | 3° |
| 2026-05-07 23:50 | -37.55027 | -57.72460 | 10000 ft | 289 kts | 3° |
| 2026-05-07 23:50 | -37.53015 | -57.72297 | 10000 ft | 289 kts | 3° |
| 2026-05-07 23:50 | -37.51005 | -57.72134 | 10001 ft | 289 kts | 3° |
| 2026-05-07 23:51 | -37.48994 | -57.71971 | 10011 ft | 289 kts | 3° |
| 2026-05-07 23:51 | -37.46985 | -57.71809 | 9999 ft | 289 kts | 3° |
| 2026-05-07 23:51 | -37.45000 | -57.71649 | 9999 ft | 289 kts | 3° |
| 2026-05-07 23:51 | -37.42988 | -57.71486 | 10008 ft | 289 kts | 3° |
| 2026-05-07 23:52 | -37.40985 | -57.71325 | 9999 ft | 289 kts | 3° |
| 2026-05-07 23:52 | -37.38976 | -57.71163 | 10005 ft | 289 kts | 3° |
| 2026-05-07 23:52 | -37.36970 | -57.71002 | 9999 ft | 289 kts | 3° |
| 2026-05-07 23:52 | -37.34961 | -57.70844 | 10000 ft | 289 kts | 3° |
| 2026-05-07 23:53 | -37.32953 | -57.70688 | 10000 ft | 289 kts | 3° |
| 2026-05-07 23:53 | -37.30945 | -57.70533 | 10000 ft | 289 kts | 3° |
| 2026-05-07 23:53 | -37.28935 | -57.70377 | 10004 ft | 289 kts | 3° |
| 2026-05-07 23:53 | -37.26944 | -57.70223 | 9999 ft | 289 kts | 3° |
| 2026-05-07 23:54 | -37.24934 | -57.70074 | 10003 ft | 290 kts | 1° |
| 2026-05-07 23:54 | -37.22813 | -57.70125 | 10030 ft | 323 kts | 356° |
| 2026-05-07 23:54 | -37.20463 | -57.70318 | 10021 ft | 347 kts | 355° |
| 2026-05-07 23:54 | -37.18034 | -57.70551 | 10004 ft | 352 kts | 355° |
| 2026-05-07 23:55 | -37.15593 | -57.70784 | 9989 ft | 350 kts | 355° |
| 2026-05-07 23:55 | -37.13160 | -57.71008 | 9996 ft | 349 kts | 355° |
| 2026-05-07 23:55 | -37.10741 | -57.71220 | 10445 ft | 352 kts | 355° |
| 2026-05-07 23:55 | -37.08285 | -57.71428 | 11297 ft | 356 kts | 356° |
| 2026-05-07 23:56 | -37.05829 | -57.71630 | 12211 ft | 358 kts | 356° |
| 2026-05-07 23:56 | -37.03322 | -57.71833 | 13075 ft | 362 kts | 356° |
| 2026-05-07 23:56 | -37.00784 | -57.72036 | 13888 ft | 367 kts | 356° |
| 2026-05-07 23:56 | -36.98216 | -57.72240 | 14681 ft | 372 kts | 356° |
| 2026-05-07 23:57 | -36.95620 | -57.72446 | 15458 ft | 376 kts | 356° |
| 2026-05-07 23:57 | -36.92993 | -57.72653 | 16216 ft | 380 kts | 356° |
| 2026-05-07 23:57 | -36.90332 | -57.72863 | 16950 ft | 384 kts | 356° |
| 2026-05-07 23:57 | -36.87653 | -57.73073 | 17686 ft | 388 kts | 356° |
| 2026-05-07 23:58 | -36.84946 | -57.73286 | 18397 ft | 392 kts | 356° |
| 2026-05-07 23:58 | -36.82213 | -57.73501 | 19061 ft | 396 kts | 356° |
| 2026-05-07 23:58 | -36.79451 | -57.73718 | 19716 ft | 400 kts | 356° |
| 2026-05-07 23:58 | -36.76657 | -57.73937 | 20349 ft | 404 kts | 356° |
| 2026-05-07 23:59 | -36.73842 | -57.74158 | 20985 ft | 407 kts | 356° |
| 2026-05-07 23:59 | -36.71047 | -57.74377 | 21593 ft | 410 kts | 356° |
| 2026-05-07 23:59 | -36.68187 | -57.74601 | 22168 ft | 413 kts | 356° |
| 2026-05-07 23:59 | -36.65300 | -57.74826 | 22719 ft | 417 kts | 356° |
| 2026-05-08 00:00 | -36.62390 | -57.75054 | 23256 ft | 421 kts | 356° |
| 2026-05-08 00:00 | -36.59461 | -57.75283 | 23814 ft | 423 kts | 356° |
| 2026-05-08 00:00 | -36.56510 | -57.75513 | 24323 ft | 426 kts | 356° |
| 2026-05-08 00:00 | -36.53541 | -57.75744 | 24831 ft | 429 kts | 356° |
| 2026-05-08 00:01 | -36.50550 | -57.75978 | 25325 ft | 432 kts | 356° |
| 2026-05-08 00:01 | -36.47535 | -57.76212 | 25793 ft | 434 kts | 356° |
| 2026-05-08 00:01 | -36.44547 | -57.76445 | 26254 ft | 437 kts | 356° |
| 2026-05-08 00:01 | -36.41500 | -57.76682 | 26701 ft | 439 kts | 356° |
| 2026-05-08 00:02 | -36.38439 | -57.76920 | 27143 ft | 441 kts | 356° |
| 2026-05-08 00:02 | -36.35364 | -57.77158 | 27575 ft | 443 kts | 356° |
| 2026-05-08 00:02 | -36.32274 | -57.77398 | 27999 ft | 445 kts | 356° |
| 2026-05-08 00:02 | -36.29175 | -57.77638 | 28421 ft | 447 kts | 356° |
| 2026-05-08 00:03 | -36.26068 | -57.77879 | 28877 ft | 447 kts | 356° |
| 2026-05-08 00:03 | -36.22962 | -57.78119 | 29386 ft | 446 kts | 356° |
| 2026-05-08 00:03 | -36.19911 | -57.78355 | 29918 ft | 444 kts | 356° |
| 2026-05-08 00:03 | -36.16833 | -57.78593 | 30442 ft | 442 kts | 356° |
| 2026-05-08 00:04 | -36.13761 | -57.78830 | 30827 ft | 442 kts | 356° |
| 2026-05-08 00:04 | -36.10707 | -57.79065 | 30721 ft | 435 kts | 356° |
| 2026-05-08 00:04 | -36.04782 | -57.79522 | 30694 ft | 421 kts | 356° |
| 2026-05-08 00:05 | -35.98944 | -57.79971 | 30696 ft | 423 kts | 356° |
| 2026-05-08 00:05 | -35.93046 | -57.80424 | 30695 ft | 425 kts | 356° |
| 2026-05-08 00:06 | -35.87137 | -57.80878 | 30691 ft | 425 kts | 356° |
| 2026-05-08 00:06 | -35.81238 | -57.81329 | 30687 ft | 425 kts | 356° |
| 2026-05-08 00:07 | -35.75382 | -57.81777 | 30687 ft | 424 kts | 356° |
| 2026-05-08 00:07 | -35.69493 | -57.82227 | 30687 ft | 423 kts | 356° |
| 2026-05-08 00:08 | -35.66541 | -57.82452 | 30285 ft | 429 kts | 356° |
| 2026-05-08 00:08 | -35.63571 | -57.82909 | 29485 ft | 431 kts | 346° |
| 2026-05-08 00:08 | -35.60662 | -57.83894 | 28624 ft | 435 kts | 343° |
| 2026-05-08 00:08 | -35.57750 | -57.84950 | 27757 ft | 437 kts | 343° |
| 2026-05-08 00:09 | -35.54827 | -57.86017 | 26891 ft | 439 kts | 343° |
| 2026-05-08 00:09 | -35.51892 | -57.87080 | 26015 ft | 440 kts | 343° |
| 2026-05-08 00:09 | -35.48947 | -57.88142 | 25150 ft | 440 kts | 343° |
| 2026-05-08 00:09 | -35.46033 | -57.89193 | 24282 ft | 440 kts | 343° |
| 2026-05-08 00:10 | -35.43131 | -57.90238 | 23397 ft | 429 kts | 343° |
| 2026-05-08 00:10 | -35.40298 | -57.91258 | 22517 ft | 418 kts | 343° |
| 2026-05-08 00:10 | -35.37535 | -57.92252 | 21642 ft | 409 kts | 343° |
| 2026-05-08 00:10 | -35.34823 | -57.93227 | 20764 ft | 401 kts | 343° |
| 2026-05-08 00:11 | -35.32168 | -57.94181 | 19893 ft | 394 kts | 343° |
| 2026-05-08 00:11 | -35.29585 | -57.95109 | 18908 ft | 390 kts | 343° |
| 2026-05-08 00:11 | -35.26979 | -57.96044 | 17782 ft | 389 kts | 343° |
| 2026-05-08 00:11 | -35.24382 | -57.96976 | 16660 ft | 388 kts | 343° |
| 2026-05-08 00:12 | -35.21802 | -57.97902 | 15531 ft | 385 kts | 343° |
| 2026-05-08 00:12 | -35.19236 | -57.98822 | 14416 ft | 383 kts | 343° |
| 2026-05-08 00:12 | -35.16693 | -57.99733 | 13292 ft | 379 kts | 343° |
| 2026-05-08 00:12 | -35.14167 | -58.00638 | 12181 ft | 376 kts | 343° |
| 2026-05-08 00:13 | -35.11670 | -58.01531 | 11056 ft | 372 kts | 343° |
| 2026-05-08 00:13 | -35.09196 | -58.02417 | 9925 ft | 368 kts | 343° |
| 2026-05-08 00:13 | -35.06746 | -58.03293 | 8807 ft | 364 kts | 343° |
| 2026-05-08 00:13 | -35.04354 | -58.04148 | 7699 ft | 360 kts | 343° |
| 2026-05-08 00:14 | -35.01962 | -58.05003 | 6577 ft | 356 kts | 343° |
| 2026-05-08 00:14 | -34.99591 | -58.05849 | 5543 ft | 351 kts | 343° |
| 2026-05-08 00:14 | -34.97330 | -58.06656 | 5259 ft | 325 kts | 343° |
| 2026-05-08 00:14 | -34.95238 | -58.07400 | 5108 ft | 300 kts | 343° |
| 2026-05-08 00:15 | -34.93309 | -58.08086 | 5006 ft | 278 kts | 343° |
| 2026-05-08 00:15 | -34.91530 | -58.08716 | 4984 ft | 255 kts | 343° |
| 2026-05-08 00:15 | -34.90425 | -58.09107 | 4979 ft | 242 kts | 343° |
| 2026-05-08 00:15 | -34.88869 | -58.09656 | 4862 ft | 228 kts | 343° |
| 2026-05-08 00:16 | -34.87246 | -58.10229 | 3763 ft | 257 kts | 343° |
| 2026-05-08 00:16 | -34.85467 | -58.10861 | 2735 ft | 275 kts | 342° |
| 2026-05-08 00:16 | -34.83880 | -58.11967 | 2675 ft | 257 kts | 320° |
| 2026-05-08 00:16 | -34.82559 | -58.13365 | 2406 ft | 247 kts | 319° |
| 2026-05-08 00:17 | -34.81253 | -58.14706 | 2212 ft | 246 kts | 320° |
| 2026-05-08 00:17 | -34.79926 | -58.15995 | 2188 ft | 248 kts | 322° |
| 2026-05-08 00:17 | -34.78579 | -58.17249 | 2187 ft | 246 kts | 322° |
| 2026-05-08 00:17 | -34.77202 | -58.18492 | 2183 ft | 246 kts | 323° |
| 2026-05-08 00:18 | -34.75815 | -58.19715 | 2179 ft | 246 kts | 324° |
| 2026-05-08 00:18 | -34.74424 | -58.20924 | 2172 ft | 243 kts | 324° |
| 2026-05-08 00:18 | -34.73067 | -58.22091 | 2164 ft | 234 kts | 324° |
| 2026-05-08 00:18 | -34.71758 | -58.23209 | 2165 ft | 225 kts | 324° |
| 2026-05-08 00:19 | -34.70538 | -58.24246 | 2174 ft | 203 kts | 324° |
| 2026-05-08 00:19 | -34.69442 | -58.25175 | 2159 ft | 181 kts | 324° |
| 2026-05-08 00:19 | -34.68459 | -58.26008 | 2174 ft | 168 kts | 324° |
| 2026-05-08 00:19 | -34.67504 | -58.26816 | 2146 ft | 170 kts | 324° |
| 2026-05-08 00:20 | -34.66528 | -58.27640 | 2062 ft | 170 kts | 324° |
| 2026-05-08 00:20 | -34.65570 | -58.28449 | 2040 ft | 165 kts | 324° |
| 2026-05-08 00:20 | -34.64626 | -58.29245 | 2038 ft | 166 kts | 324° |
| 2026-05-08 00:20 | -34.63673 | -58.30047 | 2042 ft | 167 kts | 324° |
| 2026-05-08 00:21 | -34.62718 | -58.30852 | 2041 ft | 167 kts | 324° |
| 2026-05-08 00:21 | -34.61766 | -58.31653 | 2041 ft | 166 kts | 324° |
| 2026-05-08 00:21 | -34.60898 | -58.32561 | 1935 ft | 165 kts | 304° |
| 2026-05-08 00:21 | -34.60291 | -58.33725 | 1606 ft | 170 kts | 302° |
| 2026-05-08 00:22 | -34.59623 | -58.34927 | 1094 ft | 168 kts | 303° |
| 2026-05-08 00:22 | -34.58989 | -58.36067 | 793 ft | 154 kts | 303° |
| 2026-05-08 00:22 | -34.58418 | -58.37093 | 647 ft | 145 kts | 303° |
| 2026-05-08 00:22 | -34.57864 | -58.38092 | 477 ft | 140 kts | 303° |
| 2026-05-08 00:23 | -34.57335 | -58.39094 | 314 ft | 142 kts | 305° |
| 2026-05-08 00:23 | -34.56784 | -58.40064 | 151 ft | 141 kts | 303° |
| 2026-05-08 00:23 | -34.56233 | -58.41023 | 28 ft | 134 kts | 304° |
| 2026-05-08 00:23 | -34.55794 | -58.41814 | 23 ft | 91 kts | 304° |
| 2026-05-08 00:24 | -34.55516 | -58.42312 | 27 ft | 35 kts | 304° |
| 2026-05-08 00:24 | -34.55415 | -58.42489 | 28 ft | 11 kts | 313° |
| 2026-05-08 00:24 | -34.55400 | -58.42501 | 27 ft | 1 kts | 354° |
| 2026-05-08 00:24 | -34.55377 | -58.42494 | 25 ft | 6 kts | 25° |
| 2026-05-08 00:25 | -34.55369 | -58.42487 | 25 ft | 0 kts | 40° |
| 2026-05-08 00:26 | -34.55369 | -58.42486 | 24 ft | 1 kts | 44° |
| 2026-05-08 00:26 | -34.55363 | -58.42449 | 25 ft | 9 kts | 88° |
| 2026-05-08 00:26 | -34.55392 | -58.42339 | 26 ft | 18 kts | 124° |
| 2026-05-08 00:26 | -34.55484 | -58.42192 | 27 ft | 25 kts | 127° |
| 2026-05-08 00:27 | -34.55592 | -58.42013 | 27 ft | 27 kts | 125° |
| 2026-05-08 00:27 | -34.55695 | -58.41828 | 28 ft | 21 kts | 124° |
| 2026-05-08 00:27 | -34.55772 | -58.41675 | 26 ft | 22 kts | 115° |
| 2026-05-08 00:27 | -34.55812 | -58.41569 | 27 ft | 23 kts | 115° |
| 2026-05-08 00:28 | -34.55873 | -58.41426 | 25 ft | 22 kts | 117° |
| 2026-05-08 00:28 | -34.55905 | -58.41333 | 25 ft | 8 kts | 87° |
| 2026-05-08 00:28 | -34.55865 | -58.41287 | 25 ft | 9 kts | 17° |
| 2026-05-08 00:28 | -34.55829 | -58.41276 | 25 ft | 5 kts | 28° |
| 2026-05-08 00:29 | -34.55814 | -58.41264 | 25 ft | 4 kts | 33° |
| 2026-05-08 00:29 | -34.55798 | -58.41250 | 25 ft | 0 kts | 36° |